sensor_id;sensor_type;location;lat;lon;timestamp;P1;durP1;ratioP1;P2;durP2;ratioP2
27424;SDS011;15244;49.088;11.886;2023-07-13T00:03:52;4.13;;;2.53;;
27424;SDS011;15244;49.088;11.886;2023-07-13T00:08:54;2.83;;;2.60;;
27424;SDS011;15244;49.088;11.886;2023-07-13T00:13:56;4.28;;;2.15;;
27424;SDS011;15244;49.088;11.886;2023-07-13T00:18:58;2.53;;;2.33;;
27424;SDS011;15244;49.088;11.886;2023-07-13T00:24:01;3.50;;;2.75;;
27424;SDS011;15244;49.088;11.886;2023-07-13T00:29:04;2.55;;;1.95;;
27424;SDS011;15244;49.088;11.886;2023-07-13T00:34:09;3.83;;;2.63;;
27424;SDS011;15244;49.088;11.886;2023-07-13T00:39:12;4.50;;;3.03;;
27424;SDS011;15244;49.088;11.886;2023-07-13T00:44:14;3.75;;;2.47;;
27424;SDS011;15244;49.088;11.886;2023-07-13T00:49:18;3.38;;;2.80;;
27424;SDS011;15244;49.088;11.886;2023-07-13T00:54:23;3.50;;;3.20;;
27424;SDS011;15244;49.088;11.886;2023-07-13T00:59:28;5.63;;;3.63;;
27424;SDS011;15244;49.088;11.886;2023-07-13T01:04:30;3.50;;;3.20;;
27424;SDS011;15244;49.088;11.886;2023-07-13T01:09:32;4.68;;;3.55;;
27424;SDS011;15244;49.088;11.886;2023-07-13T01:14:34;3.42;;;3.13;;
27424;SDS011;15244;49.088;11.886;2023-07-13T01:19:36;4.07;;;3.78;;
27424;SDS011;15244;49.088;11.886;2023-07-13T01:24:41;4.53;;;4.15;;
27424;SDS011;15244;49.088;11.886;2023-07-13T01:29:44;6.72;;;4.40;;
27424;SDS011;15244;49.088;11.886;2023-07-13T01:34:48;4.25;;;3.80;;
27424;SDS011;15244;49.088;11.886;2023-07-13T01:39:51;6.22;;;3.88;;
27424;SDS011;15244;49.088;11.886;2023-07-13T01:44:53;4.00;;;3.58;;
27424;SDS011;15244;49.088;11.886;2023-07-13T01:49:56;4.18;;;3.88;;
27424;SDS011;15244;49.088;11.886;2023-07-13T01:54:59;4.40;;;3.25;;
27424;SDS011;15244;49.088;11.886;2023-07-13T02:00:02;7.60;;;4.30;;
27424;SDS011;15244;49.088;11.886;2023-07-13T02:05:16;4.03;;;3.70;;
27424;SDS011;15244;49.088;11.886;2023-07-13T02:10:18;3.85;;;3.55;;
27424;SDS011;15244;49.088;11.886;2023-07-13T02:15:19;6.88;;;4.18;;
27424;SDS011;15244;49.088;11.886;2023-07-13T02:20:22;6.40;;;3.72;;
27424;SDS011;15244;49.088;11.886;2023-07-13T02:25:24;6.85;;;3.72;;
27424;SDS011;15244;49.088;11.886;2023-07-13T02:30:26;5.20;;;3.28;;
27424;SDS011;15244;49.088;11.886;2023-07-13T02:35:32;5.80;;;3.50;;
27424;SDS011;15244;49.088;11.886;2023-07-13T02:40:34;5.13;;;3.53;;
27424;SDS011;15244;49.088;11.886;2023-07-13T02:45:36;4.88;;;3.55;;
27424;SDS011;15244;49.088;11.886;2023-07-13T02:50:38;4.43;;;3.97;;
27424;SDS011;15244;49.088;11.886;2023-07-13T02:55:40;8.40;;;3.50;;
27424;SDS011;15244;49.088;11.886;2023-07-13T03:00:42;6.90;;;3.75;;
27424;SDS011;15244;49.088;11.886;2023-07-13T03:05:47;3.42;;;3.22;;
27424;SDS011;15244;49.088;11.886;2023-07-13T03:11:00;7.13;;;2.97;;
27424;SDS011;15244;49.088;11.886;2023-07-13T03:16:06;4.28;;;3.10;;
27424;SDS011;15244;49.088;11.886;2023-07-13T03:21:09;4.45;;;3.22;;
27424;SDS011;15244;49.088;11.886;2023-07-13T03:26:18;4.03;;;3.05;;
27424;SDS011;15244;49.088;11.886;2023-07-13T03:31:23;4.40;;;3.40;;
27424;SDS011;15244;49.088;11.886;2023-07-13T03:36:28;5.05;;;3.17;;
27424;SDS011;15244;49.088;11.886;2023-07-13T03:41:34;4.03;;;2.90;;
27424;SDS011;15244;49.088;11.886;2023-07-13T03:46:36;8.18;;;3.30;;
27424;SDS011;15244;49.088;11.886;2023-07-13T03:51:38;7.22;;;3.05;;
27424;SDS011;15244;49.088;11.886;2023-07-13T03:56:40;3.95;;;2.80;;
27424;SDS011;15244;49.088;11.886;2023-07-13T04:01:43;4.18;;;3.00;;
27424;SDS011;15244;49.088;11.886;2023-07-13T04:06:46;4.25;;;2.80;;
27424;SDS011;15244;49.088;11.886;2023-07-13T04:11:48;5.32;;;2.95;;
27424;SDS011;15244;49.088;11.886;2023-07-13T04:16:50;2.90;;;2.70;;
27424;SDS011;15244;49.088;11.886;2023-07-13T04:21:51;3.20;;;2.67;;
27424;SDS011;15244;49.088;11.886;2023-07-13T04:26:53;4.22;;;3.00;;
27424;SDS011;15244;49.088;11.886;2023-07-13T04:31:55;4.22;;;2.75;;
27424;SDS011;15244;49.088;11.886;2023-07-13T04:36:57;6.82;;;2.50;;
27424;SDS011;15244;49.088;11.886;2023-07-13T04:41:58;2.80;;;2.60;;
27424;SDS011;15244;49.088;11.886;2023-07-13T04:47:00;3.92;;;2.03;;
27424;SDS011;15244;49.088;11.886;2023-07-13T04:52:02;4.75;;;2.58;;
27424;SDS011;15244;49.088;11.886;2023-07-13T04:57:04;2.20;;;2.00;;
27424;SDS011;15244;49.088;11.886;2023-07-13T05:02:09;3.50;;;2.30;;
27424;SDS011;15244;49.088;11.886;2023-07-13T05:07:11;4.70;;;2.00;;
27424;SDS011;15244;49.088;11.886;2023-07-13T05:12:14;2.35;;;1.92;;
27424;SDS011;15244;49.088;11.886;2023-07-13T05:17:16;4.03;;;1.88;;
27424;SDS011;15244;49.088;11.886;2023-07-13T05:22:17;2.28;;;1.85;;
27424;SDS011;15244;49.088;11.886;2023-07-13T05:27:19;5.93;;;1.90;;
27424;SDS011;15244;49.088;11.886;2023-07-13T05:32:21;2.25;;;1.70;;
27424;SDS011;15244;49.088;11.886;2023-07-13T05:37:23;5.43;;;1.95;;
27424;SDS011;15244;49.088;11.886;2023-07-13T05:42:25;2.22;;;1.65;;
27424;SDS011;15244;49.088;11.886;2023-07-13T05:47:26;1.70;;;1.60;;
27424;SDS011;15244;49.088;11.886;2023-07-13T05:52:28;2.22;;;1.50;;
27424;SDS011;15244;49.088;11.886;2023-07-13T05:57:30;1.80;;;1.70;;
27424;SDS011;15244;49.088;11.886;2023-07-13T06:02:31;1.88;;;1.30;;
27424;SDS011;15244;49.088;11.886;2023-07-13T06:07:33;1.40;;;1.30;;
27424;SDS011;15244;49.088;11.886;2023-07-13T06:12:35;1.98;;;1.30;;
27424;SDS011;15244;49.088;11.886;2023-07-13T06:17:37;1.17;;;1.00;;
27424;SDS011;15244;49.088;11.886;2023-07-13T06:22:39;1.48;;;1.38;;
27424;SDS011;15244;49.088;11.886;2023-07-13T06:27:41;2.75;;;1.40;;
27424;SDS011;15244;49.088;11.886;2023-07-13T06:32:43;4.13;;;1.70;;
27424;SDS011;15244;49.088;11.886;2023-07-13T06:37:44;2.03;;;1.48;;
27424;SDS011;15244;49.088;11.886;2023-07-13T06:42:46;1.50;;;1.40;;
27424;SDS011;15244;49.088;11.886;2023-07-13T06:47:48;2.65;;;1.30;;
27424;SDS011;15244;49.088;11.886;2023-07-13T06:52:50;2.90;;;1.23;;
27424;SDS011;15244;49.088;11.886;2023-07-13T06:57:54;1.40;;;1.30;;
27424;SDS011;15244;49.088;11.886;2023-07-13T07:02:56;1.70;;;1.20;;
27424;SDS011;15244;49.088;11.886;2023-07-13T07:07:58;3.45;;;1.15;;
27424;SDS011;15244;49.088;11.886;2023-07-13T07:13:00;1.25;;;1.15;;
27424;SDS011;15244;49.088;11.886;2023-07-13T07:18:02;2.85;;;1.20;;
27424;SDS011;15244;49.088;11.886;2023-07-13T07:23:04;1.90;;;1.30;;
27424;SDS011;15244;49.088;11.886;2023-07-13T07:28:06;1.63;;;1.17;;
27424;SDS011;15244;49.088;11.886;2023-07-13T07:33:10;1.08;;;1.00;;
27424;SDS011;15244;49.088;11.886;2023-07-13T07:38:12;1.58;;;1.08;;
27424;SDS011;15244;49.088;11.886;2023-07-13T07:43:14;1.77;;;0.98;;
27424;SDS011;15244;49.088;11.886;2023-07-13T07:48:16;1.85;;;1.13;;
27424;SDS011;15244;49.088;11.886;2023-07-13T07:53:18;1.95;;;1.20;;
27424;SDS011;15244;49.088;11.886;2023-07-13T07:58:19;1.35;;;1.10;;
27424;SDS011;15244;49.088;11.886;2023-07-13T08:03:24;2.28;;;1.10;;
27424;SDS011;15244;49.088;11.886;2023-07-13T08:08:29;4.03;;;1.40;;
27424;SDS011;15244;49.088;11.886;2023-07-13T08:13:31;1.25;;;1.23;;
27424;SDS011;15244;49.088;11.886;2023-07-13T08:18:33;1.23;;;1.10;;
27424;SDS011;15244;49.088;11.886;2023-07-13T08:23:35;1.08;;;1.00;;
27424;SDS011;15244;49.088;11.886;2023-07-13T08:28:37;1.50;;;1.40;;
27424;SDS011;15244;49.088;11.886;2023-07-13T08:33:39;1.30;;;1.20;;
27424;SDS011;15244;49.088;11.886;2023-07-13T08:38:42;2.85;;;1.40;;
27424;SDS011;15244;49.088;11.886;2023-07-13T08:43:46;2.08;;;1.05;;
27424;SDS011;15244;49.088;11.886;2023-07-13T08:48:56;2.78;;;1.30;;
27424;SDS011;15244;49.088;11.886;2023-07-13T08:54:01;2.30;;;1.20;;
27424;SDS011;15244;49.088;11.886;2023-07-13T08:59:10;2.55;;;1.10;;
27424;SDS011;15244;49.088;11.886;2023-07-13T09:04:15;1.83;;;1.23;;
27424;SDS011;15244;49.088;11.886;2023-07-13T09:14:43;1.33;;;0.90;;
27424;SDS011;15244;49.088;11.886;2023-07-13T09:19:51;0.85;;;0.70;;
27424;SDS011;15244;49.088;11.886;2023-07-13T09:25:05;1.13;;;0.88;;
27424;SDS011;15244;49.088;11.886;2023-07-13T09:30:17;1.77;;;0.90;;
27424;SDS011;15244;49.088;11.886;2023-07-13T09:35:28;3.13;;;0.80;;
27424;SDS011;15244;49.088;11.886;2023-07-13T09:46:00;1.02;;;0.60;;
27424;SDS011;15244;49.088;11.886;2023-07-13T09:51:15;2.72;;;0.93;;
27424;SDS011;15244;49.088;11.886;2023-07-13T09:56:24;1.20;;;0.90;;
27424;SDS011;15244;49.088;11.886;2023-07-13T10:01:36;0.80;;;0.80;;
27424;SDS011;15244;49.088;11.886;2023-07-13T10:06:40;4.82;;;0.82;;
27424;SDS011;15244;49.088;11.886;2023-07-13T10:11:45;1.65;;;0.88;;
27424;SDS011;15244;49.088;11.886;2023-07-13T10:16:47;1.88;;;0.95;;
27424;SDS011;15244;49.088;11.886;2023-07-13T10:21:57;1.17;;;0.90;;
27424;SDS011;15244;49.088;11.886;2023-07-13T10:27:16;0.80;;;0.70;;
27424;SDS011;15244;49.088;11.886;2023-07-13T10:32:21;0.60;;;0.60;;
27424;SDS011;15244;49.088;11.886;2023-07-13T10:37:26;0.75;;;0.65;;
27424;SDS011;15244;49.088;11.886;2023-07-13T10:42:35;1.52;;;0.82;;
27424;SDS011;15244;49.088;11.886;2023-07-13T10:47:40;3.08;;;0.68;;
27424;SDS011;15244;49.088;11.886;2023-07-13T10:52:54;2.83;;;0.82;;
27424;SDS011;15244;49.088;11.886;2023-07-13T10:58:03;1.00;;;0.88;;
27424;SDS011;15244;49.088;11.886;2023-07-13T11:03:15;1.05;;;0.55;;
27424;SDS011;15244;49.088;11.886;2023-07-13T11:08:31;1.98;;;0.75;;
27424;SDS011;15244;49.088;11.886;2023-07-13T11:13:38;1.55;;;0.80;;
27424;SDS011;15244;49.088;11.886;2023-07-13T11:18:41;1.87;;;0.70;;
27424;SDS011;15244;49.088;11.886;2023-07-13T11:29:12;1.25;;;0.63;;
27424;SDS011;15244;49.088;11.886;2023-07-13T11:34:30;0.80;;;0.60;;
27424;SDS011;15244;49.088;11.886;2023-07-13T11:39:36;1.52;;;0.80;;
27424;SDS011;15244;49.088;11.886;2023-07-13T11:44:50;1.05;;;0.68;;
27424;SDS011;15244;49.088;11.886;2023-07-13T11:50:20;0.60;;;0.60;;
27424;SDS011;15244;49.088;11.886;2023-07-13T11:55:24;0.70;;;0.60;;
27424;SDS011;15244;49.088;11.886;2023-07-13T12:00:28;2.33;;;1.38;;
27424;SDS011;15244;49.088;11.886;2023-07-13T12:05:38;0.90;;;0.70;;
27424;SDS011;15244;49.088;11.886;2023-07-13T12:11:00;1.00;;;0.90;;
27424;SDS011;15244;49.088;11.886;2023-07-13T12:16:21;1.30;;;0.88;;
27424;SDS011;15244;49.088;11.886;2023-07-13T12:21:33;1.15;;;0.63;;
27424;SDS011;15244;49.088;11.886;2023-07-13T12:26:40;0.70;;;0.60;;
27424;SDS011;15244;49.088;11.886;2023-07-13T12:31:44;1.33;;;0.82;;
27424;SDS011;15244;49.088;11.886;2023-07-13T12:36:55;0.60;;;0.60;;
27424;SDS011;15244;49.088;11.886;2023-07-13T12:42:09;1.48;;;0.82;;
27424;SDS011;15244;49.088;11.886;2023-07-13T12:47:22;1.33;;;0.40;;
27424;SDS011;15244;49.088;11.886;2023-07-13T12:57:38;1.35;;;0.80;;
27424;SDS011;15244;49.088;11.886;2023-07-13T13:02:49;2.97;;;0.98;;
27424;SDS011;15244;49.088;11.886;2023-07-13T13:07:57;0.80;;;0.70;;
27424;SDS011;15244;49.088;11.886;2023-07-13T13:13:03;2.08;;;0.80;;
27424;SDS011;15244;49.088;11.886;2023-07-13T13:18:10;0.63;;;0.63;;
27424;SDS011;15244;49.088;11.886;2023-07-13T13:23:18;2.75;;;0.75;;
27424;SDS011;15244;49.088;11.886;2023-07-13T13:28:21;2.35;;;0.80;;
27424;SDS011;15244;49.088;11.886;2023-07-13T13:33:27;0.60;;;0.60;;
27424;SDS011;15244;49.088;11.886;2023-07-13T13:38:32;2.15;;;0.77;;
27424;SDS011;15244;49.088;11.886;2023-07-13T13:43:35;2.55;;;0.90;;
27424;SDS011;15244;49.088;11.886;2023-07-13T13:48:37;0.98;;;0.60;;
27424;SDS011;15244;49.088;11.886;2023-07-13T13:53:43;0.85;;;0.75;;
27424;SDS011;15244;49.088;11.886;2023-07-13T13:58:45;0.80;;;0.80;;
27424;SDS011;15244;49.088;11.886;2023-07-13T14:03:47;1.73;;;0.90;;
27424;SDS011;15244;49.088;11.886;2023-07-13T14:08:50;1.23;;;0.80;;
27424;SDS011;15244;49.088;11.886;2023-07-13T14:13:54;1.42;;;0.77;;
27424;SDS011;15244;49.088;11.886;2023-07-13T14:18:58;0.68;;;0.68;;
27424;SDS011;15244;49.088;11.886;2023-07-13T14:24:02;1.67;;;0.82;;
27424;SDS011;15244;49.088;11.886;2023-07-13T14:29:04;1.30;;;0.63;;
27424;SDS011;15244;49.088;11.886;2023-07-13T14:34:13;0.77;;;0.60;;
27424;SDS011;15244;49.088;11.886;2023-07-13T14:39:17;0.80;;;0.80;;
27424;SDS011;15244;49.088;11.886;2023-07-13T14:44:21;0.88;;;0.57;;
27424;SDS011;15244;49.088;11.886;2023-07-13T14:49:29;1.65;;;0.90;;
27424;SDS011;15244;49.088;11.886;2023-07-13T14:54:33;0.75;;;0.65;;
27424;SDS011;15244;49.088;11.886;2023-07-13T14:59:35;1.55;;;0.63;;
27424;SDS011;15244;49.088;11.886;2023-07-13T15:04:37;0.98;;;0.80;;
27424;SDS011;15244;49.088;11.886;2023-07-13T15:09:38;0.80;;;0.60;;
27424;SDS011;15244;49.088;11.886;2023-07-13T15:14:40;1.23;;;0.80;;
27424;SDS011;15244;49.088;11.886;2023-07-13T15:19:42;1.27;;;0.73;;
27424;SDS011;15244;49.088;11.886;2023-07-13T15:24:47;1.00;;;0.68;;
27424;SDS011;15244;49.088;11.886;2023-07-13T15:29:49;1.00;;;0.90;;
27424;SDS011;15244;49.088;11.886;2023-07-13T15:34:52;1.27;;;0.63;;
27424;SDS011;15244;49.088;11.886;2023-07-13T15:39:56;1.00;;;0.73;;
27424;SDS011;15244;49.088;11.886;2023-07-13T15:45:00;1.88;;;0.90;;
27424;SDS011;15244;49.088;11.886;2023-07-13T15:50:42;0.77;;;0.77;;
27424;SDS011;15244;49.088;11.886;2023-07-13T15:55:54;2.65;;;0.73;;
27424;SDS011;15244;49.088;11.886;2023-07-13T16:00:59;3.35;;;0.85;;
27424;SDS011;15244;49.088;11.886;2023-07-13T16:06:02;1.40;;;0.77;;
27424;SDS011;15244;49.088;11.886;2023-07-13T16:16:32;1.25;;;0.80;;
27424;SDS011;15244;49.088;11.886;2023-07-13T16:21:40;2.42;;;1.02;;
27424;SDS011;15244;49.088;11.886;2023-07-13T16:26:45;1.23;;;0.77;;
27424;SDS011;15244;49.088;11.886;2023-07-13T16:32:12;1.42;;;0.85;;
27424;SDS011;15244;49.088;11.886;2023-07-13T16:37:20;1.67;;;1.00;;
27424;SDS011;15244;49.088;11.886;2023-07-13T16:42:29;1.02;;;0.85;;
27424;SDS011;15244;49.088;11.886;2023-07-13T16:47:31;0.80;;;0.73;;
27424;SDS011;15244;49.088;11.886;2023-07-13T16:52:35;1.45;;;0.77;;
27424;SDS011;15244;49.088;11.886;2023-07-13T16:57:37;1.05;;;0.73;;
27424;SDS011;15244;49.088;11.886;2023-07-13T17:02:49;1.00;;;0.85;;
27424;SDS011;15244;49.088;11.886;2023-07-13T17:07:52;0.90;;;0.70;;
27424;SDS011;15244;49.088;11.886;2023-07-13T17:12:57;2.45;;;0.80;;
27424;SDS011;15244;49.088;11.886;2023-07-13T17:18:01;1.10;;;0.60;;
27424;SDS011;15244;49.088;11.886;2023-07-13T17:23:19;0.52;;;0.52;;
27424;SDS011;15244;49.088;11.886;2023-07-13T17:28:25;4.88;;;0.85;;
27424;SDS011;15244;49.088;11.886;2023-07-13T17:33:31;1.60;;;0.65;;
27424;SDS011;15244;49.088;11.886;2023-07-13T17:38:44;0.65;;;0.55;;
27424;SDS011;15244;49.088;11.886;2023-07-13T17:43:59;1.50;;;0.90;;
27424;SDS011;15244;49.088;11.886;2023-07-13T17:49:22;0.95;;;0.90;;
27424;SDS011;15244;49.088;11.886;2023-07-13T17:54:33;0.73;;;0.63;;
27424;SDS011;15244;49.088;11.886;2023-07-13T17:59:35;0.60;;;0.60;;
27424;SDS011;15244;49.088;11.886;2023-07-13T18:04:36;1.48;;;0.90;;
27424;SDS011;15244;49.088;11.886;2023-07-13T18:09:38;1.38;;;0.90;;
27424;SDS011;15244;49.088;11.886;2023-07-13T18:14:42;0.80;;;0.70;;
27424;SDS011;15244;49.088;11.886;2023-07-13T18:19:44;2.15;;;0.70;;
27424;SDS011;15244;49.088;11.886;2023-07-13T18:24:48;1.17;;;0.80;;
27424;SDS011;15244;49.088;11.886;2023-07-13T18:29:50;1.60;;;0.70;;
27424;SDS011;15244;49.088;11.886;2023-07-13T18:34:58;0.82;;;0.77;;
27424;SDS011;15244;49.088;11.886;2023-07-13T18:40:02;2.80;;;0.60;;
27424;SDS011;15244;49.088;11.886;2023-07-13T18:45:05;1.00;;;0.90;;
27424;SDS011;15244;49.088;11.886;2023-07-13T18:50:12;0.60;;;0.57;;
27424;SDS011;15244;49.088;11.886;2023-07-13T18:55:17;3.13;;;0.82;;
27424;SDS011;15244;49.088;11.886;2023-07-13T19:00:29;0.90;;;0.80;;
27424;SDS011;15244;49.088;11.886;2023-07-13T19:05:36;1.20;;;0.90;;
27424;SDS011;15244;49.088;11.886;2023-07-13T19:10:58;1.45;;;1.10;;
27424;SDS011;15244;49.088;11.886;2023-07-13T19:16:00;1.27;;;0.90;;
27424;SDS011;15244;49.088;11.886;2023-07-13T19:21:02;1.23;;;0.88;;
27424;SDS011;15244;49.088;11.886;2023-07-13T19:26:16;1.90;;;0.90;;
27424;SDS011;15244;49.088;11.886;2023-07-13T19:36:48;1.63;;;1.08;;
27424;SDS011;15244;49.088;11.886;2023-07-13T19:41:59;1.45;;;1.05;;
27424;SDS011;15244;49.088;11.886;2023-07-13T19:47:09;2.75;;;0.80;;
27424;SDS011;15244;49.088;11.886;2023-07-13T19:52:19;1.17;;;1.00;;
27424;SDS011;15244;49.088;11.886;2023-07-13T19:57:27;2.28;;;1.00;;
27424;SDS011;15244;49.088;11.886;2023-07-13T20:02:30;3.65;;;0.90;;
27424;SDS011;15244;49.088;11.886;2023-07-13T20:07:35;1.48;;;1.02;;
27424;SDS011;15244;49.088;11.886;2023-07-13T20:12:40;1.25;;;1.00;;
27424;SDS011;15244;49.088;11.886;2023-07-13T20:17:46;0.75;;;0.73;;
27424;SDS011;15244;49.088;11.886;2023-07-13T20:22:51;1.33;;;0.70;;
27424;SDS011;15244;49.088;11.886;2023-07-13T20:27:55;1.63;;;0.85;;
27424;SDS011;15244;49.088;11.886;2023-07-13T20:33:04;2.03;;;0.80;;
27424;SDS011;15244;49.088;11.886;2023-07-13T20:38:13;2.50;;;0.80;;
27424;SDS011;15244;49.088;11.886;2023-07-13T20:43:16;0.98;;;0.88;;
27424;SDS011;15244;49.088;11.886;2023-07-13T20:53:25;3.78;;;1.15;;
27424;SDS011;15244;49.088;11.886;2023-07-13T20:58:30;2.35;;;0.80;;
27424;SDS011;15244;49.088;11.886;2023-07-13T21:03:34;1.20;;;1.00;;
27424;SDS011;15244;49.088;11.886;2023-07-13T21:08:35;2.20;;;1.20;;
27424;SDS011;15244;49.088;11.886;2023-07-13T21:13:40;3.72;;;1.10;;
27424;SDS011;15244;49.088;11.886;2023-07-13T21:18:41;1.10;;;0.98;;
27424;SDS011;15244;49.088;11.886;2023-07-13T21:23:43;1.02;;;0.93;;
27424;SDS011;15244;49.088;11.886;2023-07-13T21:28:46;2.38;;;0.88;;
27424;SDS011;15244;49.088;11.886;2023-07-13T21:33:49;1.55;;;1.10;;
27424;SDS011;15244;49.088;11.886;2023-07-13T21:38:54;1.00;;;0.80;;
27424;SDS011;15244;49.088;11.886;2023-07-13T21:44:11;8.20;;;1.30;;
27424;SDS011;15244;49.088;11.886;2023-07-13T21:49:21;1.20;;;1.10;;
27424;SDS011;15244;49.088;11.886;2023-07-13T21:54:26;2.15;;;0.80;;
27424;SDS011;15244;49.088;11.886;2023-07-13T21:59:30;1.20;;;1.10;;
27424;SDS011;15244;49.088;11.886;2023-07-13T22:04:35;2.30;;;1.25;;
27424;SDS011;15244;49.088;11.886;2023-07-13T22:09:36;1.80;;;1.00;;
27424;SDS011;15244;49.088;11.886;2023-07-13T22:14:38;1.00;;;0.85;;
27424;SDS011;15244;49.088;11.886;2023-07-13T22:19:41;1.83;;;1.05;;
27424;SDS011;15244;49.088;11.886;2023-07-13T22:24:43;1.88;;;0.93;;
27424;SDS011;15244;49.088;11.886;2023-07-13T22:29:48;1.42;;;0.98;;
27424;SDS011;15244;49.088;11.886;2023-07-13T22:34:49;1.75;;;1.17;;
27424;SDS011;15244;49.088;11.886;2023-07-13T22:39:53;1.73;;;0.95;;
27424;SDS011;15244;49.088;11.886;2023-07-13T22:44:59;8.57;;;1.30;;
27424;SDS011;15244;49.088;11.886;2023-07-13T22:50:00;1.10;;;1.00;;
27424;SDS011;15244;49.088;11.886;2023-07-13T22:55:14;3.33;;;1.05;;
27424;SDS011;15244;49.088;11.886;2023-07-13T23:00:19;1.02;;;0.95;;
27424;SDS011;15244;49.088;11.886;2023-07-13T23:05:23;0.90;;;0.80;;
27424;SDS011;15244;49.088;11.886;2023-07-13T23:10:35;1.80;;;1.05;;
27424;SDS011;15244;49.088;11.886;2023-07-13T23:15:37;1.00;;;0.88;;
27424;SDS011;15244;49.088;11.886;2023-07-13T23:20:41;1.77;;;1.00;;
27424;SDS011;15244;49.088;11.886;2023-07-13T23:25:43;2.25;;;0.93;;
27424;SDS011;15244;49.088;11.886;2023-07-13T23:30:47;2.80;;;1.35;;
27424;SDS011;15244;49.088;11.886;2023-07-13T23:35:54;2.00;;;1.00;;
27424;SDS011;15244;49.088;11.886;2023-07-13T23:40:59;2.60;;;1.20;;
27424;SDS011;15244;49.088;11.886;2023-07-13T23:46:01;1.10;;;1.00;;
27424;SDS011;15244;49.088;11.886;2023-07-13T23:51:04;1.23;;;1.13;;
27424;SDS011;15244;49.088;11.886;2023-07-13T23:56:18;1.30;;;1.20;;
